KCDN/CDN METAR and TAF weather

Enter ICAO airport designator
Station Type Date Time Source
KCDN METAR 2024/05/28 22:55 UTC NOAA

KCDN 282255Z AUTO 30005KT 10SM CLR 30/11 A2991 RMK AO2


Station Type Date Time Source
KCDN Decoded METAR 2024/05/28 22:55 UTC NOAA

Station name not available
May 28, 2024 - 06:55 PM EDT / 2024.05.28 2255 UTC
Wind: from the WNW (300 degrees) at 6 MPH (5 KT):0
Visibility: 10 mile(s):0
Sky conditions: clear
Temperature: 86 F (30 C)
Dew Point: 51 F (11 C)
Relative Humidity: 30%
Pressure (altimeter): 29.91 in. Hg (1012 hPa)
ob: KCDN 282255Z AUTO 30005KT 10SM CLR 30/11 A2991 RMK AO2
cycle: 23

Station Type Date Time Source
KCDN TAF UTC NOAA

Error!

Example: see airport list